createdAt,value
2022-11-26T00:01:30.818Z,79.38
2022-11-26T00:04:02.734Z,79.07
2022-11-26T00:06:35.431Z,78.96
2022-11-26T00:09:05.805Z,79.08
2022-11-26T00:11:34.631Z,79.16
2022-11-26T00:14:10.689Z,79.11
2022-11-26T00:16:40.576Z,79.25
2022-11-26T00:19:09.782Z,79.08
2022-11-26T00:21:42.159Z,79.35
2022-11-26T00:24:26.838Z,79.47
2022-11-26T00:26:58.791Z,79.34
2022-11-26T00:29:28.073Z,79.35
2022-11-26T00:31:56.831Z,79.32
2022-11-26T00:34:30.648Z,79.19
2022-11-26T00:37:03.038Z,79.16
2022-11-26T00:39:31.444Z,79.09
2022-11-26T00:42:00.168Z,79.20
2022-11-26T00:44:35.094Z,79.16
2022-11-26T00:47:04.677Z,79.26
2022-11-26T00:49:33.216Z,79.14
2022-11-26T00:52:01.924Z,79.26
2022-11-26T00:54:30.690Z,79.33
2022-11-26T00:56:59.067Z,79.23
2022-11-26T00:59:30.239Z,79.32
2022-11-26T01:02:01.295Z,79.38
2022-11-26T01:04:30.568Z,79.22
2022-11-26T01:07:02.552Z,79.31
2022-11-26T01:09:30.909Z,79.49
2022-11-26T01:11:59.286Z,79.61
2022-11-26T01:14:30.736Z,79.31
2022-11-26T01:16:59.871Z,79.42
2022-11-26T01:19:29.887Z,79.25
2022-11-26T01:21:58.688Z,79.32
2022-11-26T01:24:29.827Z,79.24
2022-11-26T01:26:59.527Z,79.32
2022-11-26T01:29:30.250Z,79.47
2022-11-26T01:31:58.998Z,79.45
2022-11-26T01:34:28.439Z,79.47
2022-11-26T01:36:57.125Z,79.41
2022-11-26T01:39:25.633Z,79.39
2022-11-26T01:42:07.511Z,79.58
2022-11-26T01:44:38.744Z,79.49
2022-11-26T01:47:22.465Z,79.33
2022-11-26T01:50:32.117Z,79.15
2022-11-26T01:53:03.872Z,78.77
2022-11-26T01:55:38.095Z,79.10
2022-11-26T01:58:10.469Z,79.31
2022-11-26T02:00:40.455Z,79.12
2022-11-26T02:03:09.720Z,79.30
2022-11-26T02:05:46.888Z,79.46
2022-11-26T02:08:15.508Z,79.48
2022-11-26T02:10:45.451Z,79.34
2022-11-26T02:13:13.950Z,79.37
2022-11-26T02:15:48.930Z,79.35
2022-11-26T02:18:20.896Z,79.54
2022-11-26T02:20:59.505Z,79.50
2022-11-26T02:24:01.583Z,79.71
2022-11-26T02:27:10.191Z,79.84
2022-11-26T02:30:02.382Z,79.69
2022-11-26T02:32:42.446Z,79.52
2022-11-26T02:35:18.222Z,79.58
2022-11-26T02:37:51.374Z,79.50
2022-11-26T02:40:20.190Z,79.48
2022-11-26T02:42:48.547Z,79.43
2022-11-26T02:45:21.837Z,79.53
2022-11-26T02:47:55.451Z,79.68
2022-11-26T02:50:27.659Z,79.58
2022-11-26T02:52:58.659Z,79.61
2022-11-26T02:55:33.946Z,79.32
2022-11-26T02:58:02.912Z,79.10
2022-11-26T03:00:33.777Z,79.30
2022-11-26T03:03:08.610Z,79.06
2022-11-26T03:05:41.798Z,78.90
2022-11-26T03:08:10.427Z,79.04
2022-11-26T03:10:40.551Z,78.66
2022-11-26T03:13:08.874Z,78.93
2022-11-26T03:15:40.350Z,78.92
2022-11-26T03:18:08.709Z,78.74
2022-11-26T03:20:38.979Z,79.09
2022-11-26T03:23:07.809Z,78.92
2022-11-26T03:25:37.186Z,78.84
2022-11-26T03:28:06.419Z,78.95
2022-11-26T03:30:35.201Z,79.02
2022-11-26T03:33:06.921Z,79.09
2022-11-26T03:35:36.383Z,78.91
2022-11-26T03:38:05.255Z,78.74
2022-11-26T03:40:33.456Z,78.77
2022-11-26T03:43:03.256Z,79.02
2022-11-26T03:45:31.667Z,79.14
2022-11-26T03:48:00.508Z,79.01
2022-11-26T03:50:29.722Z,78.86
2022-11-26T03:52:57.996Z,78.86
2022-11-26T03:55:26.527Z,78.72
2022-11-26T03:57:57.316Z,78.99
2022-11-26T04:00:25.900Z,78.72
2022-11-26T04:02:54.336Z,78.69
2022-11-26T04:05:22.959Z,78.70
2022-11-26T04:07:51.320Z,78.64
2022-11-26T04:10:20.001Z,78.62
2022-11-26T04:12:48.983Z,78.61
2022-11-26T04:15:18.591Z,78.65
2022-11-26T04:17:47.674Z,78.78
2022-11-26T04:20:22.027Z,78.63
2022-11-26T04:22:50.693Z,78.79
2022-11-26T04:25:19.347Z,78.81
2022-11-26T04:27:47.663Z,78.81
2022-11-26T04:30:17.301Z,78.80
2022-11-26T04:32:46.197Z,78.90
2022-11-26T04:35:14.569Z,78.84
2022-11-26T04:37:42.955Z,78.89
2022-11-26T04:40:13.229Z,78.74
2022-11-26T04:42:41.492Z,78.73
2022-11-26T04:45:11.632Z,78.74
2022-11-26T04:47:43.132Z,78.69
2022-11-26T04:50:14.840Z,78.72
2022-11-26T04:52:43.688Z,78.79
2022-11-26T04:55:15.127Z,78.80
2022-11-26T04:57:43.596Z,78.80
2022-11-26T05:00:14.541Z,78.95
2022-11-26T05:02:43.402Z,78.85
2022-11-26T05:05:12.907Z,78.96
2022-11-26T05:07:44.149Z,78.98
2022-11-26T05:10:15.629Z,78.92
2022-11-26T05:12:43.988Z,78.94
2022-11-26T05:15:13.227Z,78.97
2022-11-26T05:17:41.963Z,78.88
2022-11-26T05:20:14.744Z,78.81
2022-11-26T05:22:43.131Z,78.76
2022-11-26T05:25:12.219Z,78.95
2022-11-26T05:27:42.754Z,78.82
2022-11-26T05:30:13.391Z,78.85
2022-11-26T05:32:41.836Z,78.92
2022-11-26T05:35:11.089Z,78.93
2022-11-26T05:37:39.720Z,78.88
2022-11-26T05:40:12.221Z,78.95
2022-11-26T05:42:40.811Z,78.93
2022-11-26T05:45:13.908Z,79.02
2022-11-26T05:47:44.727Z,79.03
2022-11-26T05:50:14.443Z,79.17
2022-11-26T05:52:45.789Z,79.15
2022-11-26T05:55:15.979Z,79.21
2022-11-26T05:57:44.765Z,79.33
2022-11-26T06:00:15.382Z,79.19
2022-11-26T06:02:44.166Z,79.13
2022-11-26T06:05:14.465Z,79.05
2022-11-26T06:07:45.046Z,78.99
2022-11-26T06:10:14.688Z,78.92
2022-11-26T06:12:43.897Z,78.98
2022-11-26T06:15:12.576Z,78.85
2022-11-26T06:17:43.720Z,78.76
2022-11-26T06:20:15.623Z,78.88
2022-11-26T06:22:45.003Z,79.05
2022-11-26T06:25:17.147Z,79.26
2022-11-26T06:27:46.616Z,79.21
2022-11-26T06:30:15.470Z,79.52
2022-11-26T06:32:44.230Z,79.37
2022-11-26T06:35:13.018Z,79.23
2022-11-26T06:37:42.739Z,79.14
2022-11-26T06:40:17.479Z,78.96
2022-11-26T06:42:50.193Z,79.00
2022-11-26T06:45:19.745Z,79.05
2022-11-26T06:47:49.615Z,78.92
2022-11-26T06:50:20.233Z,78.95
2022-11-26T06:52:52.285Z,78.90
2022-11-26T06:55:21.132Z,79.02
2022-11-26T06:57:51.135Z,79.00
2022-11-26T07:00:24.054Z,78.98
2022-11-26T07:02:52.784Z,79.22
2022-11-26T07:05:21.354Z,79.13
2022-11-26T07:07:49.784Z,78.98
2022-11-26T07:10:19.725Z,78.96
2022-11-26T07:12:48.329Z,78.94
2022-11-26T07:15:18.318Z,78.96
2022-11-26T07:17:47.415Z,78.99
2022-11-26T07:20:15.958Z,79.04
2022-11-26T07:22:46.071Z,78.88
2022-11-26T07:25:17.939Z,78.99
2022-11-26T07:27:48.203Z,79.28
2022-11-26T07:30:20.602Z,79.32
2022-11-26T07:32:49.068Z,79.04
2022-11-26T07:35:20.852Z,79.04
2022-11-26T07:37:49.241Z,79.00
2022-11-26T07:40:18.032Z,78.85
2022-11-26T07:42:51.774Z,78.80
2022-11-26T07:45:23.224Z,78.81
2022-11-26T07:47:52.448Z,78.81
2022-11-26T07:50:22.881Z,78.85
2022-11-26T07:52:53.299Z,78.91
2022-11-26T07:55:22.307Z,78.91
2022-11-26T07:57:50.970Z,78.85
2022-11-26T08:00:22.045Z,78.85
2022-11-26T08:02:50.497Z,78.98
2022-11-26T08:05:21.680Z,78.96
2022-11-26T08:07:50.108Z,78.97
2022-11-26T08:10:19.015Z,78.93
2022-11-26T08:12:47.434Z,78.93
2022-11-26T08:15:16.091Z,79.11
2022-11-26T08:17:44.603Z,79.11
2022-11-26T08:20:14.428Z,79.03
2022-11-26T08:22:43.296Z,79.01
2022-11-26T08:25:13.019Z,79.01
2022-11-26T08:27:41.992Z,78.80
2022-11-26T08:30:13.873Z,79.01
2022-11-26T08:32:44.090Z,79.07
2022-11-26T08:35:12.760Z,79.15
2022-11-26T08:37:42.651Z,79.15
2022-11-26T08:40:14.247Z,79.03
2022-11-26T08:42:42.690Z,79.17
2022-11-26T08:45:12.127Z,79.09
2022-11-26T08:47:40.421Z,79.06
2022-11-26T08:50:15.858Z,79.22
2022-11-26T08:52:44.867Z,79.07
2022-11-26T08:55:13.251Z,79.15
2022-11-26T08:57:41.794Z,79.03
2022-11-26T09:00:14.893Z,79.08
2022-11-26T09:02:43.544Z,79.15
2022-11-26T09:05:14.941Z,79.07
2022-11-26T09:07:47.750Z,79.10
2022-11-26T09:10:17.930Z,78.99
2022-11-26T09:12:46.309Z,78.89
2022-11-26T09:15:14.863Z,79.04
2022-11-26T09:17:43.531Z,79.06
2022-11-26T09:20:12.655Z,79.11
2022-11-26T09:22:41.495Z,79.14
2022-11-26T09:25:10.667Z,79.18
2022-11-26T09:27:41.588Z,79.13
2022-11-26T09:30:15.699Z,79.12
2022-11-26T09:32:44.702Z,79.21
2022-11-26T09:35:13.064Z,79.08
2022-11-26T09:37:41.813Z,78.99
2022-11-26T09:40:16.547Z,79.16
2022-11-26T09:42:56.344Z,79.03
2022-11-26T09:45:37.794Z,79.21
2022-11-26T09:48:14.111Z,79.31
2022-11-26T09:50:45.990Z,79.23
2022-11-26T09:53:20.984Z,79.17
2022-11-26T09:55:51.543Z,79.34
2022-11-26T09:58:27.291Z,79.23
2022-11-26T10:00:59.636Z,79.17
2022-11-26T10:03:33.648Z,79.18
2022-11-26T10:06:08.507Z,79.19
2022-11-26T10:09:26.490Z,79.21
2022-11-26T10:12:02.926Z,79.20
2022-11-26T10:14:46.412Z,79.28
2022-11-26T10:17:27.799Z,79.49
2022-11-26T10:20:21.608Z,79.29
2022-11-26T10:22:57.596Z,79.21
2022-11-26T10:25:31.391Z,79.24
2022-11-26T10:28:01.100Z,79.14
2022-11-26T10:30:32.335Z,79.33
2022-11-26T10:33:06.327Z,79.33
2022-11-26T10:35:35.849Z,79.31
2022-11-26T10:38:05.210Z,79.33
2022-11-26T10:40:33.599Z,79.29
2022-11-26T10:43:12.058Z,79.22
2022-11-26T10:45:41.004Z,79.17
2022-11-26T10:48:15.628Z,79.21
2022-11-26T10:50:54.906Z,79.03
2022-11-26T10:53:25.039Z,79.23
2022-11-26T10:55:57.221Z,79.11
2022-11-26T10:58:28.128Z,79.00
2022-11-26T11:01:02.181Z,79.12
2022-11-26T11:04:06.004Z,79.20
2022-11-26T11:06:38.012Z,79.18
2022-11-26T11:09:25.433Z,79.08
2022-11-26T11:12:14.817Z,79.04
2022-11-26T11:14:47.791Z,79.25
2022-11-26T11:17:34.108Z,79.30
2022-11-26T11:20:23.057Z,79.20
2022-11-26T11:23:00.250Z,79.24
2022-11-26T11:25:35.350Z,79.27
2022-11-26T11:28:16.372Z,79.47
2022-11-26T11:30:46.556Z,79.47
2022-11-26T11:33:22.962Z,79.44
2022-11-26T11:36:04.151Z,79.18
2022-11-26T11:38:45.268Z,79.14
2022-11-26T11:41:24.092Z,78.94
2022-11-26T11:43:57.591Z,78.93
2022-11-26T11:46:48.044Z,79.10
2022-11-26T11:49:28.881Z,79.00
2022-11-26T11:52:13.375Z,79.01
2022-11-26T11:54:56.316Z,78.96
2022-11-26T11:57:48.685Z,79.02
2022-11-26T12:00:19.534Z,79.05
2022-11-26T12:03:11.555Z,79.08
2022-11-26T12:05:48.842Z,79.12
2022-11-26T12:08:30.955Z,79.18
2022-11-26T12:11:18.335Z,79.28
2022-11-26T12:13:52.835Z,79.23
2022-11-26T12:16:24.632Z,79.19
2022-11-26T12:18:59.244Z,79.13
2022-11-26T12:21:36.410Z,79.04
2022-11-26T12:24:20.242Z,79.07
2022-11-26T12:26:55.085Z,79.04
2022-11-26T12:29:30.517Z,79.00
2022-11-26T12:32:10.923Z,78.96
2022-11-26T12:34:44.487Z,78.98
2022-11-26T12:37:21.212Z,79.07
2022-11-26T12:39:58.054Z,79.13
2022-11-26T12:42:33.843Z,79.22
2022-11-26T12:45:17.550Z,79.14
2022-11-26T12:47:53.436Z,79.17
2022-11-26T12:50:33.625Z,79.19
2022-11-26T12:53:16.156Z,79.10
2022-11-26T12:55:52.570Z,79.07
2022-11-26T12:58:30.959Z,78.99
2022-11-26T13:00:58.832Z,79.12
2022-11-26T13:03:32.727Z,79.06
2022-11-26T13:06:11.594Z,79.20
2022-11-26T13:08:47.955Z,79.30
2022-11-26T13:11:30.476Z,79.21
2022-11-26T13:14:06.214Z,79.10
2022-11-26T13:16:41.533Z,79.19
2022-11-26T13:19:19.220Z,79.16
2022-11-26T13:22:11.861Z,78.96
2022-11-26T13:24:59.803Z,78.93
2022-11-26T13:27:44.683Z,79.03
2022-11-26T13:30:20.563Z,79.03
2022-11-26T13:33:36.892Z,79.03
2022-11-26T13:36:25.569Z,79.09
2022-11-26T13:39:11.227Z,79.19
2022-11-26T13:42:17.064Z,79.15
2022-11-26T13:45:09.798Z,79.10
2022-11-26T13:47:43.729Z,78.97
2022-11-26T13:50:17.367Z,79.03
2022-11-26T13:52:53.106Z,79.06
2022-11-26T13:55:26.327Z,79.03
2022-11-26T13:57:59.127Z,79.02
2022-11-26T14:00:30.888Z,79.10
2022-11-26T14:03:02.890Z,79.07
2022-11-26T14:06:07.824Z,79.16
2022-11-26T14:08:40.690Z,79.06
2022-11-26T14:11:12.704Z,78.89
2022-11-26T14:13:43.721Z,78.92
2022-11-26T14:16:12.286Z,78.88
2022-11-26T14:19:00.922Z,79.02
2022-11-26T14:21:59.251Z,79.02
2022-11-26T14:24:55.671Z,79.07
2022-11-26T14:27:30.344Z,78.97
2022-11-26T14:30:19.783Z,78.90
2022-11-26T14:32:56.299Z,79.08
2022-11-26T14:35:33.896Z,79.06
2022-11-26T14:38:05.403Z,78.92
2022-11-26T14:40:35.849Z,78.99
2022-11-26T14:43:12.633Z,79.06
2022-11-26T14:45:42.071Z,78.99
2022-11-26T14:48:24.299Z,79.02
2022-11-26T14:50:54.545Z,78.91
2022-11-26T14:53:26.295Z,79.02
2022-11-26T14:55:55.367Z,79.02
2022-11-26T14:58:31.436Z,78.86
2022-11-26T15:01:07.199Z,78.90
2022-11-26T15:03:36.199Z,79.02
2022-11-26T15:06:05.477Z,78.89
2022-11-26T15:08:33.949Z,78.98
2022-11-26T15:11:05.615Z,79.01
2022-11-26T15:13:38.411Z,78.97
2022-11-26T15:16:26.359Z,79.17
2022-11-26T15:18:55.969Z,78.98
2022-11-26T15:21:31.860Z,78.95
2022-11-26T15:24:03.655Z,78.83
2022-11-26T15:26:35.526Z,78.95
2022-11-26T15:29:30.345Z,79.13
2022-11-26T15:32:00.346Z,79.05
2022-11-26T15:34:31.990Z,78.93
2022-11-26T15:37:01.163Z,79.10
2022-11-26T15:39:31.364Z,79.10
2022-11-26T15:42:05.241Z,78.89
2022-11-26T15:44:42.100Z,78.95
2022-11-26T15:47:19.812Z,78.91
2022-11-26T15:49:52.241Z,78.90
2022-11-26T15:52:23.352Z,79.07
2022-11-26T15:55:15.988Z,79.02
2022-11-26T15:57:50.232Z,79.13
2022-11-26T16:00:25.146Z,78.99
2022-11-26T16:02:55.633Z,79.04
2022-11-26T16:05:30.571Z,78.95
2022-11-26T16:08:00.606Z,78.97
2022-11-26T16:10:34.964Z,78.98
2022-11-26T16:13:16.558Z,79.02
2022-11-26T16:15:56.296Z,78.98
2022-11-26T16:18:30.602Z,78.98
2022-11-26T16:21:05.317Z,79.17
2022-11-26T16:23:34.482Z,79.10
2022-11-26T16:26:13.176Z,79.03
2022-11-26T16:28:42.110Z,79.09
2022-11-26T16:31:10.708Z,78.82
2022-11-26T16:33:39.311Z,78.99
2022-11-26T16:36:19.675Z,79.30
2022-11-26T16:38:49.510Z,78.95
2022-11-26T16:41:20.022Z,79.04
2022-11-26T16:43:49.282Z,79.02
2022-11-26T16:46:20.858Z,78.95
2022-11-26T16:48:50.486Z,78.99
2022-11-26T16:51:19.747Z,78.93
2022-11-26T16:53:49.136Z,78.92
2022-11-26T16:56:22.648Z,78.90
2022-11-26T16:58:51.426Z,78.93
2022-11-26T17:01:19.972Z,79.04
2022-11-26T17:03:48.706Z,79.06
2022-11-26T17:06:22.953Z,78.95
2022-11-26T17:08:51.918Z,78.97
2022-11-26T17:11:20.639Z,78.98
2022-11-26T17:13:49.210Z,79.06
2022-11-26T17:16:25.339Z,79.02
2022-11-26T17:18:56.446Z,79.11
2022-11-26T17:21:25.850Z,79.12
2022-11-26T17:23:54.593Z,79.12
2022-11-26T17:26:24.544Z,79.13
2022-11-26T17:28:53.388Z,78.96
2022-11-26T17:31:21.852Z,79.04
2022-11-26T17:33:50.474Z,78.93
2022-11-26T17:36:21.639Z,78.84
2022-11-26T17:38:50.702Z,78.93
2022-11-26T17:41:19.580Z,78.91
2022-11-26T17:43:48.251Z,79.03
2022-11-26T17:46:20.400Z,79.00
2022-11-26T17:48:51.458Z,79.03
2022-11-26T17:51:24.773Z,78.94
2022-11-26T17:53:53.430Z,78.99
2022-11-26T17:56:23.922Z,78.85
2022-11-26T17:58:52.584Z,78.89
2022-11-26T18:01:21.518Z,79.01
2022-11-26T18:03:51.898Z,78.98
2022-11-26T18:06:31.988Z,79.05
2022-11-26T18:09:00.494Z,79.10
2022-11-26T18:11:45.429Z,79.00
2022-11-26T18:14:14.715Z,78.94
2022-11-26T18:16:47.657Z,79.03
2022-11-26T18:19:18.534Z,78.96
2022-11-26T18:21:48.771Z,79.08
2022-11-26T18:24:17.844Z,78.94
2022-11-26T18:26:48.907Z,79.02
2022-11-26T18:29:18.062Z,79.07
2022-11-26T18:31:46.766Z,79.08
2022-11-26T18:34:15.577Z,79.12
2022-11-26T18:36:47.120Z,79.21
2022-11-26T18:39:18.252Z,79.29
2022-11-26T18:41:46.929Z,79.29
2022-11-26T18:44:15.582Z,79.28
2022-11-26T18:46:44.369Z,79.46
2022-11-26T18:49:12.820Z,79.33
2022-11-26T18:51:42.695Z,79.39
2022-11-26T18:54:11.311Z,79.21
2022-11-26T18:56:39.715Z,79.32
2022-11-26T18:59:09.299Z,79.38
2022-11-26T19:01:38.494Z,79.10
2022-11-26T19:04:07.598Z,79.28
2022-11-26T19:06:37.313Z,79.19
2022-11-26T19:09:08.363Z,79.08
2022-11-26T19:11:37.422Z,79.13
2022-11-26T19:14:05.925Z,79.05
2022-11-26T19:16:40.043Z,79.18
2022-11-26T19:19:09.146Z,79.25
2022-11-26T19:21:38.081Z,79.38
2022-11-26T19:24:10.992Z,79.26
2022-11-26T19:26:40.746Z,79.09
2022-11-26T19:29:11.236Z,79.24
2022-11-26T19:31:40.269Z,79.14
2022-11-26T19:34:13.215Z,79.15
2022-11-26T19:36:47.691Z,79.02
2022-11-26T19:39:18.121Z,79.17
2022-11-26T19:41:47.049Z,79.37
2022-11-26T19:44:18.183Z,79.31
2022-11-26T19:46:50.437Z,79.29
2022-11-26T19:49:19.054Z,79.26
2022-11-26T19:51:53.985Z,79.11
2022-11-26T19:54:23.082Z,79.13
2022-11-26T19:56:51.854Z,79.28
2022-11-26T19:59:21.276Z,79.28
2022-11-26T20:01:49.909Z,79.11
2022-11-26T20:04:19.190Z,79.05
2022-11-26T20:06:47.876Z,79.16
2022-11-26T20:09:16.523Z,79.10
2022-11-26T20:11:45.390Z,79.25
2022-11-26T20:14:14.695Z,79.34
2022-11-26T20:16:44.422Z,79.37
2022-11-26T20:19:13.762Z,79.38
2022-11-26T20:21:45.176Z,79.24
2022-11-26T20:24:16.681Z,79.25
2022-11-26T20:26:48.050Z,79.17
2022-11-26T20:29:17.948Z,79.02
2022-11-26T20:31:51.776Z,78.99
2022-11-26T20:34:22.432Z,79.04
2022-11-26T20:36:50.928Z,79.19
2022-11-26T20:39:28.943Z,79.08
2022-11-26T20:42:00.291Z,79.15
2022-11-26T20:44:30.575Z,79.13
2022-11-26T20:46:59.388Z,79.22
2022-11-26T20:49:33.671Z,79.09
2022-11-26T20:52:05.746Z,79.12
2022-11-26T20:54:34.672Z,79.20
2022-11-26T20:57:06.280Z,78.98
2022-11-26T20:59:38.002Z,79.00
2022-11-26T21:02:07.054Z,78.92
2022-11-26T21:04:36.165Z,79.04
2022-11-26T21:07:04.831Z,79.04
2022-11-26T21:09:33.235Z,78.98
2022-11-26T21:12:01.964Z,79.04
2022-11-26T21:14:31.525Z,79.14
2022-11-26T21:16:59.950Z,79.16
2022-11-26T21:19:28.877Z,79.09
2022-11-26T21:22:00.027Z,78.94
2022-11-26T21:24:29.695Z,79.14
2022-11-26T21:26:58.171Z,78.98
2022-11-26T21:29:26.747Z,79.18
2022-11-26T21:31:55.519Z,79.16
2022-11-26T21:34:24.975Z,79.15
2022-11-26T21:36:53.503Z,79.06
2022-11-26T21:39:22.310Z,79.11
2022-11-26T21:41:52.338Z,79.17
2022-11-26T21:44:23.755Z,79.17
2022-11-26T21:46:52.440Z,79.18
2022-11-26T21:49:21.986Z,79.03
2022-11-26T21:51:53.242Z,79.06
2022-11-26T21:54:21.978Z,79.22
2022-11-26T21:56:50.399Z,79.23
2022-11-26T21:59:19.245Z,79.07
2022-11-26T22:01:48.046Z,79.04
2022-11-26T22:04:18.977Z,79.07
2022-11-26T22:06:49.453Z,79.07
2022-11-26T22:09:18.427Z,78.97
2022-11-26T22:11:46.986Z,79.04
2022-11-26T22:14:19.233Z,79.08
2022-11-26T22:16:54.112Z,79.18
2022-11-26T22:19:23.303Z,79.21
2022-11-26T22:21:54.290Z,79.07
2022-11-26T22:24:23.036Z,78.88
2022-11-26T22:26:53.449Z,79.13
2022-11-26T22:29:25.216Z,79.13
2022-11-26T22:31:53.523Z,79.18
2022-11-26T22:34:28.644Z,79.17
2022-11-26T22:37:00.646Z,79.16
2022-11-26T22:39:31.461Z,79.13
2022-11-26T22:42:01.202Z,79.08
2022-11-26T22:44:33.596Z,79.21
2022-11-26T22:47:02.096Z,79.31
2022-11-26T22:49:33.495Z,79.22
2022-11-26T22:52:02.251Z,79.28
2022-11-26T22:54:31.926Z,79.20
2022-11-26T22:57:00.648Z,79.10
2022-11-26T22:59:31.861Z,79.19
2022-11-26T23:02:00.650Z,79.08
2022-11-26T23:04:30.603Z,79.01
2022-11-26T23:06:59.959Z,79.21
2022-11-26T23:09:28.618Z,79.11
2022-11-26T23:11:58.880Z,79.19
2022-11-26T23:14:27.487Z,79.19
2022-11-26T23:16:55.996Z,79.02
2022-11-26T23:19:24.729Z,79.25
2022-11-26T23:21:53.364Z,79.19
2022-11-26T23:24:21.898Z,79.35
2022-11-26T23:26:51.019Z,79.27
2022-11-26T23:29:19.521Z,79.32
2022-11-26T23:31:49.144Z,79.27
2022-11-26T23:34:17.867Z,79.32
2022-11-26T23:36:46.345Z,79.24
2022-11-26T23:39:14.737Z,79.39
2022-11-26T23:41:44.166Z,79.45
2022-11-26T23:44:12.843Z,79.38
2022-11-26T23:46:43.798Z,79.33
2022-11-26T23:49:12.891Z,79.40
2022-11-26T23:51:41.437Z,79.25
2022-11-26T23:54:09.978Z,79.24
2022-11-26T23:56:43.935Z,79.40
2022-11-26T23:59:12.958Z,79.52
